地図

経路データ

SID SEASON NUMBER BASIN SUBBASIN NAME ISO_TIME NATURE LAT LON WMO_WIND WMO_PRES WMO_AGENCY TRACK_TYPE DIST2LAND LANDFALL IFLAG USA_AGENCY USA_ATCF_ID USA_LAT USA_LON USA_RECORD USA_STATUS USA_WIND USA_PRES USA_SSHS USA_R34_NE USA_R34_SE USA_R34_SW USA_R34_NW USA_R50_NE USA_R50_SE USA_R50_SW USA_R50_NW USA_R64_NE USA_R64_SE USA_R64_SW USA_R64_NW USA_POCI USA_ROCI USA_RMW USA_EYE TOKYO_LAT TOKYO_LON TOKYO_GRADE TOKYO_WIND TOKYO_PRES TOKYO_R50_DIR TOKYO_R50_LONG TOKYO_R50_SHORT TOKYO_R30_DIR TOKYO_R30_LONG TOKYO_R30_SHORT TOKYO_LAND CMA_LAT CMA_LON CMA_CAT CMA_WIND CMA_PRES HKO_LAT HKO_LON HKO_CAT HKO_WIND HKO_PRES NEWDELHI_LAT NEWDELHI_LON NEWDELHI_GRADE NEWDELHI_WIND NEWDELHI_PRES NEWDELHI_CI NEWDELHI_DP NEWDELHI_POCI REUNION_LAT REUNION_LON REUNION_TYPE REUNION_WIND REUNION_PRES REUNION_TNUM REUNION_CI REUNION_RMW REUNION_R34_NE REUNION_R34_SE REUNION_R34_SW REUNION_R34_NW REUNION_R50_NE REUNION_R50_SE REUNION_R50_SW REUNION_R50_NW REUNION_R64_NE REUNION_R64_SE REUNION_R64_SW REUNION_R64_NW BOM_LAT BOM_LON BOM_TYPE BOM_WIND BOM_PRES BOM_TNUM BOM_CI BOM_RMW BOM_R34_NE BOM_R34_SE BOM_R34_SW BOM_R34_NW BOM_R50_NE BOM_R50_SE BOM_R50_SW BOM_R50_NW BOM_R64_NE BOM_R64_SE BOM_R64_SW BOM_R64_NW BOM_ROCI BOM_POCI BOM_EYE BOM_POS_METHOD BOM_PRES_METHOD NADI_LAT NADI_LON NADI_CAT NADI_WIND NADI_PRES WELLINGTON_LAT WELLINGTON_LON WELLINGTON_WIND WELLINGTON_PRES DS824_LAT DS824_LON DS824_STAGE DS824_WIND DS824_PRES TD9636_LAT TD9636_LON TD9636_STAGE TD9636_WIND TD9636_PRES TD9635_LAT TD9635_LON TD9635_WIND TD9635_PRES TD9635_ROCI NEUMANN_LAT NEUMANN_LON NEUMANN_CLASS NEUMANN_WIND NEUMANN_PRES MLC_LAT MLC_LON MLC_CLASS MLC_WIND MLC_PRES USA_GUST BOM_GUST BOM_GUST_PER REUNION_GUST REUNION_GUST_PER USA_SEAHGT USA_SEARAD_NE USA_SEARAD_SE USA_SEARAD_SW USA_SEARAD_NW STORM_SPEED STORM_DIR
1991228N26286 1991 52 NA NA BOB 1991-08-16 00:00:00 TS 25.6000 -74.3000 25 1014 hurdat_atl main 363 335 O_____________ hurdat_atl AL031991 25.6000 -74.3000 TD 25 1014 -1 6 280
1991228N26286 1991 52 NA NA BOB 1991-08-16 03:00:00 TS 25.6476 -74.6074 main 335 312 P_____________ AL031991 25.6476 -74.6074 TD 25 1013 -1 6 280
1991228N26286 1991 52 NA NA BOB 1991-08-16 06:00:00 TS 25.7000 -74.9000 25 1012 hurdat_atl main 312 288 O_____________ hurdat_atl AL031991 25.7000 -74.9000 TD 25 1012 -1 5 284
1991228N26286 1991 52 NA NA BOB 1991-08-16 09:00:00 TS 25.7700 -75.1651 main 288 274 P_____________ AL031991 25.7700 -75.1651 TD 27 1011 -1 5 294
1991228N26286 1991 52 NA NA BOB 1991-08-16 12:00:00 TS 25.9000 -75.4000 30 1010 hurdat_atl main 274 260 O_____________ hurdat_atl AL031991 25.9000 -75.4000 TD 30 1010 -1 5 311
1991228N26286 1991 52 NA NA BOB 1991-08-16 15:00:00 TS 26.1124 -75.6076 main 265 257 P_____________ AL031991 26.1124 -75.6076 TD 32 1007 -1 6 324
1991228N26286 1991 52 NA NA BOB 1991-08-16 18:00:00 TS 26.4000 -75.8000 35 1005 hurdat_atl main 263 260 O_____________ hurdat_atl AL031991 26.4000 -75.8000 TS 35 1005 0 7 330
1991228N26286 1991 52 NA NA BOB 1991-08-16 21:00:00 TS 26.7350 -76.0075 main 268 268 P_____________ AL031991 26.7350 -76.0075 TS 37 1004 0 8 333
1991228N26286 1991 52 NA NA BOB 1991-08-17 00:00:00 TS 27.1000 -76.2000 40 1003 hurdat_atl main 286 286 O_____________ hurdat_atl AL031991 27.1000 -76.2000 TS 40 1003 0 8 337
1991228N26286 1991 52 NA NA BOB 1991-08-17 03:00:00 TS 27.4574 -76.3502 main 311 311 P_____________ AL031991 27.4574 -76.3502 TS 42 1000 0 8 339
1991228N26286 1991 52 NA NA BOB 1991-08-17 06:00:00 TS 27.8000 -76.5000 45 998 hurdat_atl main 336 336 O_____________ hurdat_atl AL031991 27.8000 -76.5000 TS 45 998 0 7 334
1991228N26286 1991 52 NA NA BOB 1991-08-17 09:00:00 TS 28.1076 -76.7075 main 356 346 P_____________ AL031991 28.1076 -76.7075 TS 50 997 0 7 329
1991228N26286 1991 52 NA NA BOB 1991-08-17 12:00:00 TS 28.4000 -76.9000 55 996 hurdat_atl main 350 341 O_____________ hurdat_atl AL031991 28.4000 -76.9000 TS 55 996 0 7 333
1991228N26286 1991 52 NA NA BOB 1991-08-17 15:00:00 TS 28.6925 -77.0375 main 342 332 P_____________ AL031991 28.6925 -77.0375 TS 60 991 0 6 344
1991228N26286 1991 52 NA NA BOB 1991-08-17 18:00:00 TS 29.0000 -77.1000 65 986 hurdat_atl main 335 335 O_____________ hurdat_atl AL031991 29.0000 -77.1000 HU 65 986 1 6 356
1991228N26286 1991 52 NA NA BOB 1991-08-17 21:00:00 TS 29.3350 -77.0727 main 342 342 P_____________ AL031991 29.3350 -77.0727 HU 67 983 1 7 7
1991228N26286 1991 52 NA NA BOB 1991-08-18 00:00:00 TS 29.7000 -77.0000 70 980 hurdat_atl main 365 365 O_____________ hurdat_atl AL031991 29.7000 -77.0000 HU 70 980 1 8 7
1991228N26286 1991 52 NA NA BOB 1991-08-18 03:00:00 TS 30.0775 -76.9647 main 383 365 P_____________ AL031991 30.0775 -76.9647 HU 72 979 1 8 6
1991228N26286 1991 52 NA NA BOB 1991-08-18 06:00:00 TS 30.5000 -76.9000 75 979 hurdat_atl main 365 338 O_____________ hurdat_atl AL031991 30.5000 -76.9000 HU 75 979 1 9 10
1991228N26286 1991 52 NA NA BOB 1991-08-18 09:00:00 TS 30.9475 -76.7796 main 338 297 P_____________ AL031991 30.9475 -76.7796 HU 77 976 1 10 14
1991228N26286 1991 52 NA NA BOB 1991-08-18 12:00:00 TS 31.5000 -76.6000 80 974 hurdat_atl main 297 241 O_____________ hurdat_atl AL031991 31.5000 -76.6000 HU 80 974 1 13 15
1991228N26286 1991 52 NA NA BOB 1991-08-18 15:00:00 TS 32.2049 -76.3870 main 241 193 P_____________ AL031991 32.2049 -76.3870 HU 82 969 1 16 16
1991228N26286 1991 52 NA NA BOB 1991-08-18 18:00:00 TS 33.0000 -76.1000 85 965 hurdat_atl main 193 128 O_____________ hurdat_atl AL031991 33.0000 -76.1000 HU 85 965 2 17 20
1991228N26286 1991 52 NA NA BOB 1991-08-18 21:00:00 TS 33.7701 -75.7221 main 124 93 P_____________ AL031991 33.7701 -75.7221 HU 90 961 2 17 23
1991228N26286 1991 52 NA NA BOB 1991-08-19 00:00:00 TS 34.6000 -75.3000 95 957 hurdat_atl main 97 63 O_____________ hurdat_atl AL031991 34.6000 -75.3000 HU 95 957 2 18 20
1991228N26286 1991 52 NA NA BOB 1991-08-19 03:00:00 TS 35.4893 -74.9489 main 63 55 P_____________ AL031991 35.4893 -74.9489 HU 97 953 3 20 19
1991228N26286 1991 52 NA NA BOB 1991-08-19 06:00:00 TS 36.5000 -74.5000 100 950 hurdat_atl main 112 112 O_____________ hurdat_atl AL031991 36.5000 -74.5000 HU 100 950 3 24 23
1991228N26286 1991 52 NA NA BOB 1991-08-19 09:00:00 TS 37.6485 -73.8076 main 137 129 P_____________ AL031991 37.6485 -73.8076 HU 97 951 3 27 26
1991228N26286 1991 52 NA NA BOB 1991-08-19 12:00:00 TS 38.9000 -73.0000 95 953 hurdat_atl main 130 71 O_____________ hurdat_atl AL031991 38.9000 -73.0000 HU 95 953 2 29 25
1991228N26286 1991 52 NA NA BOB 1991-08-19 15:00:00 TS 40.2900 -72.2457 main 65 22 P_____________ AL031991 40.2900 -72.2457 HU 92 958 2 29 25
1991228N26286 1991 52 NA NA BOB 1991-08-19 17:20:00 TS 41.2000 -71.6000 90 962 hurdat_atl main 22 11 O_____________ hurdat_atl AL031991 41.2000 -71.6000 L HU 90 962 2 26 30
1991228N26286 1991 52 NA NA BOB 1991-08-19 18:00:00 TS 41.4000 -71.4000 85 964 hurdat_atl main 8 0 O_____________ hurdat_atl AL031991 41.4000 -71.4000 L HU 85 964 2 27 29
1991228N26286 1991 52 NA NA BOB 1991-08-19 21:00:00 TS 42.6462 -70.5227 main 8 0 P_____________ AL031991 42.6462 -70.5227 HU 72 970 1 27 29
1991228N26286 1991 52 NA NA BOB 1991-08-20 00:00:00 TS 43.8000 -69.6000 60 977 hurdat_atl main 0 0 O_____________ hurdat_atl AL031991 43.8000 -69.6000 TS 60 977 0 24 35
1991228N26286 1991 52 NA NA BOB 1991-08-20 01:30:00 TS 44.1000 -69.1000 60 981 hurdat_atl main 0 0 O_____________ hurdat_atl AL031991 44.1000 -69.1000 L TS 60 981 0 21 44
1991228N26286 1991 52 NA NA BOB 1991-08-20 03:00:00 TS 44.5411 -68.6036 main 0 0 P_____________ AL031991 44.5411 -68.6036 TS 56 983 0 25 35
1991228N26286 1991 52 NA NA BOB 1991-08-20 06:00:00 TS 45.6000 -67.6000 50 987 hurdat_atl main 0 0 O_____________ hurdat_atl AL031991 45.6000 -67.6000 TS 50 987 0 23 37
1991228N26286 1991 52 NA NA BOB 1991-08-20 09:00:00 TS 46.3476 -66.6579 main 0 0 P_____________ AL031991 46.3476 -66.6579 TS 47 992 0 20 46
1991228N26286 1991 52 NA NA BOB 1991-08-20 12:00:00 TS 47.0000 -65.5000 45 998 hurdat_atl main 0 0 O_____________ hurdat_atl AL031991 47.0000 -65.5000 TS 45 998 0 24 55
1991228N26286 1991 52 NA NA BOB 1991-08-20 15:00:00 TS 47.7019 -63.8118 main 67 67 P_____________ AL031991 47.7019 -63.8118 TS 42 1000 0 28 60
1991228N26286 1991 52 NA NA BOB 1991-08-20 18:00:00 ET 48.4000 -61.9000 40 1003 hurdat_atl main 77 57 O_____________ hurdat_atl AL031991 48.4000 -61.9000 EX 40 1003 -4 28 60
1991228N26286 1991 52 NA NA BOB 1991-08-20 21:00:00 ET 49.1203 -60.0831 main 91 30 P_____________ AL031991 49.1203 -60.0831 EX 40 1005 -4 27 59
1991228N26286 1991 52 NA NA BOB 1991-08-21 00:00:00 ET 49.8000 -58.3000 40 1008 hurdat_atl main 24 0 O_____________ hurdat_atl AL031991 49.8000 -58.3000 EX 40 1008 -4 26 60
1991228N26286 1991 52 NA NA BOB 1991-08-21 03:00:00 ET 50.3989 -56.5888 main 0 0 P_____________ AL031991 50.3989 -56.5888 EX 40 1008 -4 24 63
1991228N26286 1991 52 NA NA BOB 1991-08-21 06:00:00 ET 50.9000 -54.9000 40 1008 hurdat_atl main 59 59 O_____________ hurdat_atl AL031991 50.9000 -54.9000 EX 40 1008 -4 23 67
1991228N26286 1991 52 NA NA BOB 1991-08-21 09:00:00 ET 51.3055 -53.1994 main 159 159 P_____________ AL031991 51.3055 -53.1994 EX 37 1008 -4 23 72
1991228N26286 1991 52 NA NA BOB 1991-08-21 12:00:00 ET 51.6000 -51.4000 35 1009 hurdat_atl main 282 282 O_____________ hurdat_atl AL031991 51.6000 -51.4000 EX 35 1009 -4 24 78
1991228N26286 1991 52 NA NA BOB 1991-08-21 15:00:00 ET 51.7994 -49.4231 main 399 399 P_____________ AL031991 51.7994 -49.4231 EX 32 1009 -4 25 83
1991228N26286 1991 52 NA NA BOB 1991-08-21 18:00:00 ET 51.9000 -47.3000 30 1009 hurdat_atl main 522 522 O_____________ hurdat_atl AL031991 51.9000 -47.3000 EX 30 1009 -4 27 87
1991228N26286 1991 52 NA NA BOB 1991-08-21 21:00:00 ET 51.9497 -45.0812 main 656 656 P_____________ AL031991 51.9497 -45.0812 EX 30 1006 -4 28 90
1991228N26286 1991 52 NA NA BOB 1991-08-22 00:00:00 ET 51.9000 -42.8000 30 1004 hurdat_atl main 804 804 O_____________ hurdat_atl AL031991 51.9000 -42.8000 EX 30 1004 -4 28 94
1991228N26286 1991 52 NA NA BOB 1991-08-22 03:00:00 ET 51.7568 -40.5290 main 933 933 P_____________ AL031991 51.7568 -40.5290 EX 32 1003 -4 28 98
1991228N26286 1991 52 NA NA BOB 1991-08-22 06:00:00 ET 51.5000 -38.3000 35 1002 hurdat_atl main 997 997 O_____________ hurdat_atl AL031991 51.5000 -38.3000 EX 35 1002 -4 28 102
1991228N26286 1991 52 NA NA BOB 1991-08-22 09:00:00 ET 51.1714 -36.1524 main 1074 1074 P_____________ AL031991 51.1714 -36.1524 EX 37 998 -4 27 107
1991228N26286 1991 52 NA NA BOB 1991-08-22 12:00:00 ET 50.7000 -34.1000 40 994 hurdat_atl main 1182 1182 O_____________ hurdat_atl AL031991 50.7000 -34.1000 EX 40 994 -4 28 114
1991228N26286 1991 52 NA NA BOB 1991-08-22 15:00:00 ET 50.0567 -32.1415 main 1304 1304 P_____________ AL031991 50.0567 -32.1415 EX 40 993 -4 28 120
1991228N26286 1991 52 NA NA BOB 1991-08-22 18:00:00 ET 49.3000 -30.3000 40 992 hurdat_atl main 1417 1336 O_____________ hurdat_atl AL031991 49.3000 -30.3000 EX 40 992 -4 28 124
1991228N26286 1991 52 NA NA BOB 1991-08-22 21:00:00 ET 48.4975 -28.5426 main 1329 1267 P_____________ AL031991 48.4975 -28.5426 EX 40 992 -4 28 125
1991228N26286 1991 52 NA NA BOB 1991-08-23 00:00:00 ET 47.7000 -26.9000 40 992 hurdat_atl main 1261 1201 O_____________ hurdat_atl AL031991 47.7000 -26.9000 EX 40 992 -4 26 126
1991228N26286 1991 52 NA NA BOB 1991-08-23 03:00:00 ET 46.9534 -25.3357 main 1195 1156 P_____________ AL031991 46.9534 -25.3357 EX 40 994 -4 25 124
1991228N26286 1991 52 NA NA BOB 1991-08-23 06:00:00 ET 46.3000 -23.9000 40 996 hurdat_atl main 1151 1096 O_____________ hurdat_atl AL031991 46.3000 -23.9000 EX 40 996 -4 23 121
1991228N26286 1991 52 NA NA BOB 1991-08-23 09:00:00 ET 45.7770 -22.5417 main 1088 1001 P_____________ AL031991 45.7770 -22.5417 EX 37 998 -4 20 120
1991228N26286 1991 52 NA NA BOB 1991-08-23 12:00:00 ET 45.3000 -21.4000 35 1000 hurdat_atl main 994 915 O_____________ hurdat_atl AL031991 45.3000 -21.4000 EX 35 1000 -4 18 125
1991228N26286 1991 52 NA NA BOB 1991-08-23 15:00:00 ET 44.7563 -20.5012 main 915 860 P_____________ AL031991 44.7563 -20.5012 EX 32 1002 -4 15 136
1991228N26286 1991 52 NA NA BOB 1991-08-23 18:00:00 ET 44.2000 -19.9000 30 1004 hurdat_atl main 860 832 O_____________ hurdat_atl AL031991 44.2000 -19.9000 EX 30 1004 -4 13 149
1991228N26286 1991 52 NA NA BOB 1991-08-23 21:00:00 ET 43.6192 -19.5619 main 832 816 P_____________ AL031991 43.6192 -19.5619 EX 27 1005 -4 12 162
1991228N26286 1991 52 NA NA BOB 1991-08-24 00:00:00 ET 43.1000 -19.4000 25 1006 hurdat_atl main 817 810 O_____________ hurdat_atl AL031991 43.1000 -19.4000 EX 25 1006 -4 10 166
1991228N26286 1991 52 NA NA BOB 1991-08-24 03:00:00 ET 42.6824 -19.2506 main 812 798 P_____________ AL031991 42.6824 -19.2506 EX 25 1007 -4 7 163
1991228N26286 1991 52 NA NA BOB 1991-08-24 06:00:00 ET 42.4000 -19.1000 25 1008 hurdat_atl main 800 785 O_____________ hurdat_atl AL031991 42.4000 -19.1000 EX 25 1008 -4 5 146
1991228N26286 1991 52 NA NA BOB 1991-08-24 09:00:00 ET 42.2550 -18.8652 main 785 762 P_____________ AL031991 42.2550 -18.8652 EX 25 1008 -4 4 118
1991228N26286 1991 52 NA NA BOB 1991-08-24 12:00:00 ET 42.2000 -18.6000 25 1009 hurdat_atl main 762 738 O_____________ hurdat_atl AL031991 42.2000 -18.6000 EX 25 1009 -4 4 105
1991228N26286 1991 52 NA NA BOB 1991-08-24 15:00:00 ET 42.1501 -18.3276 main 738 724 P_____________ AL031991 42.1501 -18.3276 EX 25 1009 -4 4 105
1991228N26286 1991 52 NA NA BOB 1991-08-24 18:00:00 ET 42.1000 -18.1000 25 1009 hurdat_atl main 724 715 O_____________ hurdat_atl AL031991 42.1000 -18.1000 EX 25 1009 -4 3 118
1991228N26286 1991 52 NA NA BOB 1991-08-24 21:00:00 ET 42.0074 -17.9700 main 717 709 P_____________ AL031991 42.0074 -17.9700 EX 25 1009 -4 2 143
1991228N26286 1991 52 NA NA BOB 1991-08-25 00:00:00 ET 41.9000 -17.9000 25 1009 hurdat_atl main 712 712 O_____________ hurdat_atl AL031991 41.9000 -17.9000 EX 25 1009 -4 2 155
1991228N26286 1991 52 NA NA BOB 1991-08-25 03:00:00 ET 41.8150 -17.8501 main 714 706 P_____________ AL031991 41.8150 -17.8501 EX 25 1009 -4 2 157
1991228N26286 1991 52 NA NA BOB 1991-08-25 06:00:00 ET 41.7000 -17.8000 25 1010 hurdat_atl main 708 703 O_____________ hurdat_atl AL031991 41.7000 -17.8000 EX 25 1010 -4 3 161
1991228N26286 1991 52 NA NA BOB 1991-08-25 09:00:00 ET 41.5150 -17.7150 main 706 701 P_____________ AL031991 41.5150 -17.7150 EX 25 1010 -4 4 160
1991228N26286 1991 52 NA NA BOB 1991-08-25 12:00:00 ET 41.3000 -17.6000 25 1010 hurdat_atl main 704 700 O_____________ hurdat_atl AL031991 41.3000 -17.6000 EX 25 1010 -4 5 156
1991228N26286 1991 52 NA NA BOB 1991-08-25 15:00:00 ET 41.0999 -17.4727 main 704 696 P_____________ AL031991 41.0999 -17.4727 EX 25 1010 -4 5 150
1991228N26286 1991 52 NA NA BOB 1991-08-25 18:00:00 ET 40.9000 -17.3000 25 1010 hurdat_atl main 696 680 O_____________ hurdat_atl AL031991 40.9000 -17.3000 EX 25 1010 -4 5 145
1991228N26286 1991 52 NA NA BOB 1991-08-25 21:00:00 ET 40.6923 -17.0876 main 680 650 P_____________ AL031991 40.6923 -17.0876 EX 25 1010 -4 6 137
1991228N26286 1991 52 NA NA BOB 1991-08-26 00:00:00 ET 40.5000 -16.8000 25 1010 hurdat_atl main 650 612 O_____________ hurdat_atl AL031991 40.5000 -16.8000 EX 25 1010 -4 6 125
1991228N26286 1991 52 NA NA BOB 1991-08-26 03:00:00 ET 40.3351 -16.4225 main 612 577 P_____________ AL031991 40.3351 -16.4225 EX 25 1010 -4 7 116
1991228N26286 1991 52 NA NA BOB 1991-08-26 06:00:00 ET 40.2000 -16.0000 25 1010 hurdat_atl main 577 541 O_____________ hurdat_atl AL031991 40.2000 -16.0000 EX 25 1010 -4 7 112
1991228N26286 1991 52 NA NA BOB 1991-08-26 09:00:00 ET 40.0849 -15.6001 main 541 506 P_____________ AL031991 40.0849 -15.6001 EX 22 1011 -4 6 108
1991228N26286 1991 52 NA NA BOB 1991-08-26 12:00:00 ET 40.0000 -15.2000 20 1012 hurdat_atl main 506 470 O_____________ hurdat_atl AL031991 40.0000 -15.2000 EX 20 1012 -4 6 104
1991228N26286 1991 52 NA NA BOB 1991-08-26 15:00:00 ET 39.9350 -14.7851 main 470 437 P_____________ AL031991 39.9350 -14.7851 EX 20 1012 -4 6 99
1991228N26286 1991 52 NA NA BOB 1991-08-26 18:00:00 ET 39.9000 -14.4000 20 1012 hurdat_atl main 437 412 O_____________ hurdat_atl AL031991 39.9000 -14.4000 EX 20 1012 -4 5 95
1991228N26286 1991 52 NA NA BOB 1991-08-26 21:00:00 ET 39.8847 -14.0925 main 412 388 P_____________ AL031991 39.8847 -14.0925 EX 20 1013 -4 5 90
1991228N26286 1991 52 NA NA BOB 1991-08-27 00:00:00 ET 39.9000 -13.8000 20 1014 hurdat_atl main 388 364 O_____________ hurdat_atl AL031991 39.9000 -13.8000 EX 20 1014 -4 5 82
1991228N26286 1991 52 NA NA BOB 1991-08-27 03:00:00 ET 39.9500 -13.4577 main 364 333 P_____________ AL031991 39.9500 -13.4577 EX 20 1014 -4 5 79
1991228N26286 1991 52 NA NA BOB 1991-08-27 06:00:00 ET 40.0000 -13.1000 20 1014 hurdat_atl main 333 308 O_____________ hurdat_atl AL031991 40.0000 -13.1000 EX 20 1014 -4 5 84
1991228N26286 1991 52 NA NA BOB 1991-08-27 09:00:00 ET 40.0075 -12.7424 main 300 275 P_____________ AL031991 40.0075 -12.7424 EX 20 1014 -4 5 90
1991228N26286 1991 52 NA NA BOB 1991-08-27 12:00:00 ET 40.0000 -12.4000 20 1014 hurdat_atl main 275 251 O_____________ hurdat_atl AL031991 40.0000 -12.4000 EX 20 1014 -4 5 91
1991228N26286 1991 52 NA NA BOB 1991-08-27 15:00:00 ET 39.9999 -12.0850 main 251 227 P_____________ AL031991 39.9999 -12.0850 EX 20 1014 -4 5 90
1991228N26286 1991 52 NA NA BOB 1991-08-27 18:00:00 ET 40.0000 -11.8000 20 1014 hurdat_atl main 227 203 O_____________ hurdat_atl AL031991 40.0000 -11.8000 EX 20 1014 -4 4 90
1991228N26286 1991 52 NA NA BOB 1991-08-27 21:00:00 ET 39.9999 -11.5350 main 203 187 P_____________ AL031991 39.9999 -11.5350 EX 17 1014 -4 4 90
1991228N26286 1991 52 NA NA BOB 1991-08-28 00:00:00 ET 40.0000 -11.3000 15 1015 hurdat_atl main 187 172 O_____________ hurdat_atl AL031991 40.0000 -11.3000 EX 15 1015 -4 3 90
1991228N26286 1991 52 NA NA BOB 1991-08-28 03:00:00 ET 39.9999 -11.0925 main 172 157 P_____________ AL031991 39.9999 -11.0925 EX 15 1015 -4 3 90
1991228N26286 1991 52 NA NA BOB 1991-08-28 06:00:00 ET 40.0000 -10.9000 15 1015 hurdat_atl main 157 142 O_____________ hurdat_atl AL031991 40.0000 -10.9000 EX 15 1015 -4 3 90
1991228N26286 1991 52 NA NA BOB 1991-08-28 09:00:00 ET 40.0000 -10.7000 main 142 127 P_____________ AL031991 40.0000 -10.7000 EX 15 1014 -4 3 90
1991228N26286 1991 52 NA NA BOB 1991-08-28 12:00:00 ET 40.0000 -10.5000 15 1014 hurdat_atl main 127 111 O_____________ hurdat_atl AL031991 40.0000 -10.5000 EX 15 1014 -4 3 90
1991228N26286 1991 52 NA NA BOB 1991-08-28 15:00:00 ET 40.0000 -10.2850 main 111 96 P_____________ AL031991 40.0000 -10.2850 EX 12 1014 -4 3 90
1991228N26286 1991 52 NA NA BOB 1991-08-28 18:00:00 ET 40.0000 -10.1000 10 1014 hurdat_atl main 96 87 O_____________ hurdat_atl AL031991 40.0000 -10.1000 EX 10 1014 -4 2 90
1991228N26286 1991 52 NA NA BOB 1991-08-28 21:00:00 ET 40.0000 -9.98000 main 87 79 P_____________ AL031991 40.0000 -9.98000 EX 10 1014 -4 2 90
1991228N26286 1991 52 NA NA BOB 1991-08-29 00:00:00 ET 40.0000 -9.90000 10 1015 hurdat_atl main 79 O_____________ hurdat_atl AL031991 40.0000 -9.90000 EX 10 1015 -4 1 90

IBTrACS Databaseについて

本データベースは、米国NOAAが公開する1842年以降の世界の熱帯低気圧のベストトラックデータアーカイブInternational Best Track Archive for Climate Stewardship (IBTrACS)を、ウェブで閲覧しやすい形式に変換したものです。

最終更新日:2021-12-03